sensor_id;sensor_type;location;lat;lon;timestamp;temperature;humidity
44695;DHT22;32845;59.422;17.930;2023-08-06T00:04:18;13.80;99.90
44695;DHT22;32845;59.422;17.930;2023-08-06T00:08:49;13.70;99.90
44695;DHT22;32845;59.422;17.930;2023-08-06T00:13:20;13.70;99.90
44695;DHT22;32845;59.422;17.930;2023-08-06T00:17:51;13.60;99.90
44695;DHT22;32845;59.422;17.930;2023-08-06T00:22:21;13.60;99.90
44695;DHT22;32845;59.422;17.930;2023-08-06T00:26:52;13.60;99.90
44695;DHT22;32845;59.422;17.930;2023-08-06T00:31:22;13.50;99.90
44695;DHT22;32845;59.422;17.930;2023-08-06T00:35:53;13.50;99.90
44695;DHT22;32845;59.422;17.930;2023-08-06T00:40:23;13.40;99.90
44695;DHT22;32845;59.422;17.930;2023-08-06T00:44:54;13.30;99.90
44695;DHT22;32845;59.422;17.930;2023-08-06T00:49:25;13.30;99.90
44695;DHT22;32845;59.422;17.930;2023-08-06T00:53:56;13.20;99.90
44695;DHT22;32845;59.422;17.930;2023-08-06T00:58:26;13.20;99.90
44695;DHT22;32845;59.422;17.930;2023-08-06T01:02:57;13.10;99.90
44695;DHT22;32845;59.422;17.930;2023-08-06T01:17:24;12.90;99.90
44695;DHT22;32845;59.422;17.930;2023-08-06T01:21:57;12.90;99.90
44695;DHT22;32845;59.422;17.930;2023-08-06T01:26:35;12.90;99.90
44695;DHT22;32845;59.422;17.930;2023-08-06T01:31:10;12.80;99.90
44695;DHT22;32845;59.422;17.930;2023-08-06T01:35:46;12.80;99.90
44695;DHT22;32845;59.422;17.930;2023-08-06T01:40:18;12.70;99.90
44695;DHT22;32845;59.422;17.930;2023-08-06T01:44:49;12.70;99.90
44695;DHT22;32845;59.422;17.930;2023-08-06T01:49:20;12.70;99.90
44695;DHT22;32845;59.422;17.930;2023-08-06T01:53:50;12.60;99.90
44695;DHT22;32845;59.422;17.930;2023-08-06T01:58:21;12.60;99.90
44695;DHT22;32845;59.422;17.930;2023-08-06T02:02:52;12.60;99.90
44695;DHT22;32845;59.422;17.930;2023-08-06T02:07:22;12.50;99.90
44695;DHT22;32845;59.422;17.930;2023-08-06T02:11:53;12.50;99.90
44695;DHT22;32845;59.422;17.930;2023-08-06T02:16:23;12.50;99.90
44695;DHT22;32845;59.422;17.930;2023-08-06T02:20:58;12.40;99.90
44695;DHT22;32845;59.422;17.930;2023-08-06T02:25:29;12.40;99.90
44695;DHT22;32845;59.422;17.930;2023-08-06T02:29:59;12.40;99.90
44695;DHT22;32845;59.422;17.930;2023-08-06T02:34:30;12.40;99.90
44695;DHT22;32845;59.422;17.930;2023-08-06T02:39:01;12.30;99.90
44695;DHT22;32845;59.422;17.930;2023-08-06T02:43:31;12.30;99.90
44695;DHT22;32845;59.422;17.930;2023-08-06T02:48:02;12.30;99.90
44695;DHT22;32845;59.422;17.930;2023-08-06T02:52:33;12.20;99.90
44695;DHT22;32845;59.422;17.930;2023-08-06T02:57:05;12.20;99.90
44695;DHT22;32845;59.422;17.930;2023-08-06T03:01:36;12.20;99.90
44695;DHT22;32845;59.422;17.930;2023-08-06T03:06:06;12.20;99.90
44695;DHT22;32845;59.422;17.930;2023-08-06T03:10:37;12.20;99.90
44695;DHT22;32845;59.422;17.930;2023-08-06T03:15:08;12.10;99.90
44695;DHT22;32845;59.422;17.930;2023-08-06T03:19:39;12.10;99.90
44695;DHT22;32845;59.422;17.930;2023-08-06T03:24:09;12.10;99.90
44695;DHT22;32845;59.422;17.930;2023-08-06T03:28:40;12.20;99.90
44695;DHT22;32845;59.422;17.930;2023-08-06T03:33:10;12.20;99.90
44695;DHT22;32845;59.422;17.930;2023-08-06T03:37:41;12.20;99.90
44695;DHT22;32845;59.422;17.930;2023-08-06T03:42:11;12.20;99.90
44695;DHT22;32845;59.422;17.930;2023-08-06T03:46:42;12.20;99.90
44695;DHT22;32845;59.422;17.930;2023-08-06T03:51:13;12.20;99.90
44695;DHT22;32845;59.422;17.930;2023-08-06T03:55:43;12.20;99.90
44695;DHT22;32845;59.422;17.930;2023-08-06T04:00:14;12.30;99.90
44695;DHT22;32845;59.422;17.930;2023-08-06T04:04:44;12.40;99.90
44695;DHT22;32845;59.422;17.930;2023-08-06T04:09:15;12.50;99.90
44695;DHT22;32845;59.422;17.930;2023-08-06T04:13:46;12.60;99.90
44695;DHT22;32845;59.422;17.930;2023-08-06T04:18:17;12.70;99.90
44695;DHT22;32845;59.422;17.930;2023-08-06T04:22:47;12.90;99.90
44695;DHT22;32845;59.422;17.930;2023-08-06T04:27:19;13.00;99.90
44695;DHT22;32845;59.422;17.930;2023-08-06T04:31:50;13.10;99.90
44695;DHT22;32845;59.422;17.930;2023-08-06T04:36:20;13.20;99.90
44695;DHT22;32845;59.422;17.930;2023-08-06T04:40:51;13.40;99.90
44695;DHT22;32845;59.422;17.930;2023-08-06T04:45:22;13.50;99.90
44695;DHT22;32845;59.422;17.930;2023-08-06T04:49:54;13.60;99.90
44695;DHT22;32845;59.422;17.930;2023-08-06T04:54:25;13.80;99.90
44695;DHT22;32845;59.422;17.930;2023-08-06T04:58:55;13.90;99.90
44695;DHT22;32845;59.422;17.930;2023-08-06T05:03:26;14.00;99.90
44695;DHT22;32845;59.422;17.930;2023-08-06T05:07:57;14.00;99.90
44695;DHT22;32845;59.422;17.930;2023-08-06T05:12:28;14.10;99.90
44695;DHT22;32845;59.422;17.930;2023-08-06T05:16:58;14.30;99.90
44695;DHT22;32845;59.422;17.930;2023-08-06T05:21:29;14.40;99.90
44695;DHT22;32845;59.422;17.930;2023-08-06T05:25:59;14.50;99.90
44695;DHT22;32845;59.422;17.930;2023-08-06T05:30:30;14.60;99.90
44695;DHT22;32845;59.422;17.930;2023-08-06T05:35:01;14.70;99.90
44695;DHT22;32845;59.422;17.930;2023-08-06T05:39:31;14.90;99.90
44695;DHT22;32845;59.422;17.930;2023-08-06T05:44:02;15.00;99.90
44695;DHT22;32845;59.422;17.930;2023-08-06T05:48:33;15.00;99.90
44695;DHT22;32845;59.422;17.930;2023-08-06T05:53:03;15.20;99.90
44695;DHT22;32845;59.422;17.930;2023-08-06T05:57:34;15.30;99.90
44695;DHT22;32845;59.422;17.930;2023-08-06T06:02:05;15.40;99.90
44695;DHT22;32845;59.422;17.930;2023-08-06T06:06:36;15.60;99.90
44695;DHT22;32845;59.422;17.930;2023-08-06T06:11:06;15.70;99.90
44695;DHT22;32845;59.422;17.930;2023-08-06T06:15:37;15.80;99.90
44695;DHT22;32845;59.422;17.930;2023-08-06T06:20:08;15.90;99.90
44695;DHT22;32845;59.422;17.930;2023-08-06T06:24:39;16.00;99.90
44695;DHT22;32845;59.422;17.930;2023-08-06T06:29:09;16.10;99.90
44695;DHT22;32845;59.422;17.930;2023-08-06T06:33:40;16.30;99.90
44695;DHT22;32845;59.422;17.930;2023-08-06T06:38:11;16.40;99.90
44695;DHT22;32845;59.422;17.930;2023-08-06T06:42:41;16.50;99.90
44695;DHT22;32845;59.422;17.930;2023-08-06T06:47:12;16.60;99.90
44695;DHT22;32845;59.422;17.930;2023-08-06T06:51:43;16.70;99.90
44695;DHT22;32845;59.422;17.930;2023-08-06T06:56:14;16.80;99.90
44695;DHT22;32845;59.422;17.930;2023-08-06T07:00:46;16.80;99.90
44695;DHT22;32845;59.422;17.930;2023-08-06T07:05:16;16.90;99.90
44695;DHT22;32845;59.422;17.930;2023-08-06T07:09:47;17.00;99.90
44695;DHT22;32845;59.422;17.930;2023-08-06T07:14:17;17.10;99.90
44695;DHT22;32845;59.422;17.930;2023-08-06T07:18:48;17.30;99.90
44695;DHT22;32845;59.422;17.930;2023-08-06T07:23:24;17.40;99.90
44695;DHT22;32845;59.422;17.930;2023-08-06T07:27:55;17.50;99.90
44695;DHT22;32845;59.422;17.930;2023-08-06T07:32:27;17.60;99.90
44695;DHT22;32845;59.422;17.930;2023-08-06T07:36:58;17.70;99.90
44695;DHT22;32845;59.422;17.930;2023-08-06T07:41:29;17.80;99.90
44695;DHT22;32845;59.422;17.930;2023-08-06T07:46:00;17.80;99.90
44695;DHT22;32845;59.422;17.930;2023-08-06T07:50:31;17.90;99.90
44695;DHT22;32845;59.422;17.930;2023-08-06T07:55:02;18.00;99.90
44695;DHT22;32845;59.422;17.930;2023-08-06T07:59:35;18.10;99.90
44695;DHT22;32845;59.422;17.930;2023-08-06T08:04:05;18.20;99.90
44695;DHT22;32845;59.422;17.930;2023-08-06T08:08:36;18.30;99.90
44695;DHT22;32845;59.422;17.930;2023-08-06T08:13:09;18.40;99.90
44695;DHT22;32845;59.422;17.930;2023-08-06T08:17:40;18.60;99.90
44695;DHT22;32845;59.422;17.930;2023-08-06T08:22:11;18.70;99.90
44695;DHT22;32845;59.422;17.930;2023-08-06T08:26:41;18.80;99.90
44695;DHT22;32845;59.422;17.930;2023-08-06T08:31:12;18.90;99.90
44695;DHT22;32845;59.422;17.930;2023-08-06T08:35:43;18.90;99.90
44695;DHT22;32845;59.422;17.930;2023-08-06T08:40:16;18.90;99.90
44695;DHT22;32845;59.422;17.930;2023-08-06T08:44:46;18.90;99.90
44695;DHT22;32845;59.422;17.930;2023-08-06T08:49:18;18.90;99.90
44695;DHT22;32845;59.422;17.930;2023-08-06T08:53:53;18.80;99.90
44695;DHT22;32845;59.422;17.930;2023-08-06T08:58:26;18.90;99.90
44695;DHT22;32845;59.422;17.930;2023-08-06T09:02:59;18.90;99.90
44695;DHT22;32845;59.422;17.930;2023-08-06T09:07:32;19.00;99.90
44695;DHT22;32845;59.422;17.930;2023-08-06T09:12:15;19.10;99.90
44695;DHT22;32845;59.422;17.930;2023-08-06T09:16:47;19.10;99.90
44695;DHT22;32845;59.422;17.930;2023-08-06T09:21:17;19.10;99.90
44695;DHT22;32845;59.422;17.930;2023-08-06T09:25:48;19.10;99.90
44695;DHT22;32845;59.422;17.930;2023-08-06T09:30:32;19.20;99.90
44695;DHT22;32845;59.422;17.930;2023-08-06T09:35:04;19.20;99.90
44695;DHT22;32845;59.422;17.930;2023-08-06T09:39:35;19.10;99.90
44695;DHT22;32845;59.422;17.930;2023-08-06T09:44:18;19.20;99.90
44695;DHT22;32845;59.422;17.930;2023-08-06T09:48:50;19.10;99.90
44695;DHT22;32845;59.422;17.930;2023-08-06T09:53:22;19.10;99.90
44695;DHT22;32845;59.422;17.930;2023-08-06T09:57:53;19.10;99.90
44695;DHT22;32845;59.422;17.930;2023-08-06T10:02:26;19.10;99.90
44695;DHT22;32845;59.422;17.930;2023-08-06T10:06:58;19.00;99.90
44695;DHT22;32845;59.422;17.930;2023-08-06T10:11:30;19.00;99.90
44695;DHT22;32845;59.422;17.930;2023-08-06T10:16:02;18.90;99.90
44695;DHT22;32845;59.422;17.930;2023-08-06T10:20:35;18.90;99.90
44695;DHT22;32845;59.422;17.930;2023-08-06T10:25:05;18.90;99.90
44695;DHT22;32845;59.422;17.930;2023-08-06T10:29:37;18.80;99.90
44695;DHT22;32845;59.422;17.930;2023-08-06T10:34:07;18.70;99.90
44695;DHT22;32845;59.422;17.930;2023-08-06T10:38:49;18.60;99.90
44695;DHT22;32845;59.422;17.930;2023-08-06T10:48:03;18.50;99.90
44695;DHT22;32845;59.422;17.930;2023-08-06T10:52:34;18.50;99.90
44695;DHT22;32845;59.422;17.930;2023-08-06T10:57:09;18.50;99.90
44695;DHT22;32845;59.422;17.930;2023-08-06T11:01:41;18.40;99.90
44695;DHT22;32845;59.422;17.930;2023-08-06T11:06:17;18.40;99.90
44695;DHT22;32845;59.422;17.930;2023-08-06T11:10:49;18.30;99.90
44695;DHT22;32845;59.422;17.930;2023-08-06T11:15:20;18.30;99.90
44695;DHT22;32845;59.422;17.930;2023-08-06T11:19:52;18.20;99.90
44695;DHT22;32845;59.422;17.930;2023-08-06T11:24:24;18.20;99.90
44695;DHT22;32845;59.422;17.930;2023-08-06T11:28:55;18.10;99.90
44695;DHT22;32845;59.422;17.930;2023-08-06T11:33:26;18.10;99.90
44695;DHT22;32845;59.422;17.930;2023-08-06T11:37:57;18.00;99.90
44695;DHT22;32845;59.422;17.930;2023-08-06T11:42:31;17.90;99.90
44695;DHT22;32845;59.422;17.930;2023-08-06T11:47:05;17.90;99.90
44695;DHT22;32845;59.422;17.930;2023-08-06T11:51:36;17.90;99.90
44695;DHT22;32845;59.422;17.930;2023-08-06T11:56:07;17.80;99.90
44695;DHT22;32845;59.422;17.930;2023-08-06T12:00:39;17.80;99.90
44695;DHT22;32845;59.422;17.930;2023-08-06T12:05:13;17.80;99.90
44695;DHT22;32845;59.422;17.930;2023-08-06T12:09:44;17.70;99.90
44695;DHT22;32845;59.422;17.930;2023-08-06T12:14:15;17.70;99.90
44695;DHT22;32845;59.422;17.930;2023-08-06T12:18:45;17.70;99.90
44695;DHT22;32845;59.422;17.930;2023-08-06T12:23:16;17.60;99.90
44695;DHT22;32845;59.422;17.930;2023-08-06T12:27:46;17.60;99.90
44695;DHT22;32845;59.422;17.930;2023-08-06T12:32:17;17.50;99.90
44695;DHT22;32845;59.422;17.930;2023-08-06T12:36:48;17.50;99.90
44695;DHT22;32845;59.422;17.930;2023-08-06T12:41:18;17.40;99.90
44695;DHT22;32845;59.422;17.930;2023-08-06T12:45:49;17.40;99.90
44695;DHT22;32845;59.422;17.930;2023-08-06T12:50:19;17.40;99.90
44695;DHT22;32845;59.422;17.930;2023-08-06T12:54:50;17.40;99.90
44695;DHT22;32845;59.422;17.930;2023-08-06T12:59:21;17.40;99.90
44695;DHT22;32845;59.422;17.930;2023-08-06T13:03:51;17.40;99.90
44695;DHT22;32845;59.422;17.930;2023-08-06T13:08:22;17.40;99.90
44695;DHT22;32845;59.422;17.930;2023-08-06T13:12:52;17.30;99.90
44695;DHT22;32845;59.422;17.930;2023-08-06T13:17:23;17.40;99.90
44695;DHT22;32845;59.422;17.930;2023-08-06T13:22:02;17.40;99.90
44695;DHT22;32845;59.422;17.930;2023-08-06T13:26:34;17.40;99.90
44695;DHT22;32845;59.422;17.930;2023-08-06T13:31:05;17.30;99.90
44695;DHT22;32845;59.422;17.930;2023-08-06T13:35:35;17.30;99.90
44695;DHT22;32845;59.422;17.930;2023-08-06T13:40:07;17.30;99.90
44695;DHT22;32845;59.422;17.930;2023-08-06T13:44:39;17.30;99.90
44695;DHT22;32845;59.422;17.930;2023-08-06T13:49:09;17.30;99.90
44695;DHT22;32845;59.422;17.930;2023-08-06T13:53:40;17.30;99.90
44695;DHT22;32845;59.422;17.930;2023-08-06T13:58:11;17.20;99.90
44695;DHT22;32845;59.422;17.930;2023-08-06T14:02:42;17.20;99.90
44695;DHT22;32845;59.422;17.930;2023-08-06T14:07:14;17.20;99.90
44695;DHT22;32845;59.422;17.930;2023-08-06T14:11:45;17.20;99.90
44695;DHT22;32845;59.422;17.930;2023-08-06T14:16:16;17.20;99.90
44695;DHT22;32845;59.422;17.930;2023-08-06T14:20:46;17.20;99.90
44695;DHT22;32845;59.422;17.930;2023-08-06T14:25:17;17.10;99.90
44695;DHT22;32845;59.422;17.930;2023-08-06T14:29:47;17.10;99.90
44695;DHT22;32845;59.422;17.930;2023-08-06T14:34:18;17.10;99.90
44695;DHT22;32845;59.422;17.930;2023-08-06T14:38:49;17.10;99.90
44695;DHT22;32845;59.422;17.930;2023-08-06T14:43:19;17.10;99.90
44695;DHT22;32845;59.422;17.930;2023-08-06T14:47:50;17.00;99.90
44695;DHT22;32845;59.422;17.930;2023-08-06T14:52:21;17.00;99.90
44695;DHT22;32845;59.422;17.930;2023-08-06T14:56:52;16.90;99.90
44695;DHT22;32845;59.422;17.930;2023-08-06T15:01:23;16.90;99.90
44695;DHT22;32845;59.422;17.930;2023-08-06T15:05:53;16.90;99.90
44695;DHT22;32845;59.422;17.930;2023-08-06T15:10:24;16.80;99.90
44695;DHT22;32845;59.422;17.930;2023-08-06T15:14:54;16.80;99.90
44695;DHT22;32845;59.422;17.930;2023-08-06T15:19:27;16.80;99.90
44695;DHT22;32845;59.422;17.930;2023-08-06T15:23:58;16.80;99.90
44695;DHT22;32845;59.422;17.930;2023-08-06T15:28:29;16.80;99.90
44695;DHT22;32845;59.422;17.930;2023-08-06T15:32:59;16.80;99.90
44695;DHT22;32845;59.422;17.930;2023-08-06T15:37:30;16.80;99.90
44695;DHT22;32845;59.422;17.930;2023-08-06T15:42:01;16.80;99.90
44695;DHT22;32845;59.422;17.930;2023-08-06T15:46:32;16.80;99.90
44695;DHT22;32845;59.422;17.930;2023-08-06T15:51:05;16.80;99.90
44695;DHT22;32845;59.422;17.930;2023-08-06T15:55:35;16.80;99.90
44695;DHT22;32845;59.422;17.930;2023-08-06T16:00:08;16.90;99.90
44695;DHT22;32845;59.422;17.930;2023-08-06T16:04:39;16.90;99.90
44695;DHT22;32845;59.422;17.930;2023-08-06T16:09:09;16.90;99.90
44695;DHT22;32845;59.422;17.930;2023-08-06T16:13:40;16.90;99.90
44695;DHT22;32845;59.422;17.930;2023-08-06T16:18:10;16.90;99.90
44695;DHT22;32845;59.422;17.930;2023-08-06T16:22:41;16.90;99.90
44695;DHT22;32845;59.422;17.930;2023-08-06T16:27:12;16.90;99.90
44695;DHT22;32845;59.422;17.930;2023-08-06T16:31:43;16.90;99.90
44695;DHT22;32845;59.422;17.930;2023-08-06T16:36:13;16.90;99.90
44695;DHT22;32845;59.422;17.930;2023-08-06T16:40:52;16.90;99.90
44695;DHT22;32845;59.422;17.930;2023-08-06T16:45:22;16.90;99.90
44695;DHT22;32845;59.422;17.930;2023-08-06T16:49:53;16.90;99.90
44695;DHT22;32845;59.422;17.930;2023-08-06T16:54:24;17.00;99.90
44695;DHT22;32845;59.422;17.930;2023-08-06T16:58:54;17.00;99.90
44695;DHT22;32845;59.422;17.930;2023-08-06T17:03:25;17.00;99.90
44695;DHT22;32845;59.422;17.930;2023-08-06T17:07:56;16.90;99.90
44695;DHT22;32845;59.422;17.930;2023-08-06T17:12:26;17.00;99.90
44695;DHT22;32845;59.422;17.930;2023-08-06T17:16:57;17.00;99.90
44695;DHT22;32845;59.422;17.930;2023-08-06T17:21:28;17.00;99.90
44695;DHT22;32845;59.422;17.930;2023-08-06T17:25:58;17.00;99.90
44695;DHT22;32845;59.422;17.930;2023-08-06T17:30:30;17.00;99.90
44695;DHT22;32845;59.422;17.930;2023-08-06T17:35:01;17.00;99.90
44695;DHT22;32845;59.422;17.930;2023-08-06T17:39:32;17.00;99.90
44695;DHT22;32845;59.422;17.930;2023-08-06T17:44:03;17.00;99.90
44695;DHT22;32845;59.422;17.930;2023-08-06T17:48:34;17.00;99.90
44695;DHT22;32845;59.422;17.930;2023-08-06T17:53:04;17.00;99.90
44695;DHT22;32845;59.422;17.930;2023-08-06T17:57:35;17.10;99.90
44695;DHT22;32845;59.422;17.930;2023-08-06T18:02:07;17.10;99.90
44695;DHT22;32845;59.422;17.930;2023-08-06T18:06:37;17.10;99.90
44695;DHT22;32845;59.422;17.930;2023-08-06T18:11:08;17.10;99.90
44695;DHT22;32845;59.422;17.930;2023-08-06T18:15:39;17.10;99.90
44695;DHT22;32845;59.422;17.930;2023-08-06T18:20:10;17.10;99.90
44695;DHT22;32845;59.422;17.930;2023-08-06T18:24:40;17.10;99.90
44695;DHT22;32845;59.422;17.930;2023-08-06T18:29:11;17.10;99.90
44695;DHT22;32845;59.422;17.930;2023-08-06T18:33:41;17.10;99.90
44695;DHT22;32845;59.422;17.930;2023-08-06T18:38:12;17.20;99.90
44695;DHT22;32845;59.422;17.930;2023-08-06T18:42:43;17.20;99.90
44695;DHT22;32845;59.422;17.930;2023-08-06T18:47:14;17.20;99.90
44695;DHT22;32845;59.422;17.930;2023-08-06T18:51:44;17.30;99.90
44695;DHT22;32845;59.422;17.930;2023-08-06T18:56:15;17.30;99.90
44695;DHT22;32845;59.422;17.930;2023-08-06T19:00:46;17.30;99.90
44695;DHT22;32845;59.422;17.930;2023-08-06T19:05:17;17.30;99.90
44695;DHT22;32845;59.422;17.930;2023-08-06T19:09:48;17.30;99.90
44695;DHT22;32845;59.422;17.930;2023-08-06T19:14:18;17.30;99.90
44695;DHT22;32845;59.422;17.930;2023-08-06T19:18:49;17.40;99.90
44695;DHT22;32845;59.422;17.930;2023-08-06T19:23:20;17.40;99.90
44695;DHT22;32845;59.422;17.930;2023-08-06T19:27:53;17.40;99.90
44695;DHT22;32845;59.422;17.930;2023-08-06T19:32:23;17.40;99.90
44695;DHT22;32845;59.422;17.930;2023-08-06T19:36:54;17.50;99.90
44695;DHT22;32845;59.422;17.930;2023-08-06T19:41:24;17.50;99.90
44695;DHT22;32845;59.422;17.930;2023-08-06T19:45:55;17.50;99.90
44695;DHT22;32845;59.422;17.930;2023-08-06T19:50:28;17.50;99.90
44695;DHT22;32845;59.422;17.930;2023-08-06T19:54:59;17.60;99.90
44695;DHT22;32845;59.422;17.930;2023-08-06T19:59:29;17.60;99.90
44695;DHT22;32845;59.422;17.930;2023-08-06T20:04:01;17.60;99.90
44695;DHT22;32845;59.422;17.930;2023-08-06T20:08:31;17.60;99.90
44695;DHT22;32845;59.422;17.930;2023-08-06T20:13:02;17.70;99.90
44695;DHT22;32845;59.422;17.930;2023-08-06T20:17:33;17.70;99.90
44695;DHT22;32845;59.422;17.930;2023-08-06T20:22:03;17.70;99.90
44695;DHT22;32845;59.422;17.930;2023-08-06T20:26:34;17.70;99.90
44695;DHT22;32845;59.422;17.930;2023-08-06T20:31:05;17.70;99.90
44695;DHT22;32845;59.422;17.930;2023-08-06T20:35:39;17.70;99.90
44695;DHT22;32845;59.422;17.930;2023-08-06T20:40:10;17.70;99.90
44695;DHT22;32845;59.422;17.930;2023-08-06T20:44:41;17.70;99.90
44695;DHT22;32845;59.422;17.930;2023-08-06T20:49:12;17.80;99.90
44695;DHT22;32845;59.422;17.930;2023-08-06T20:53:42;17.80;99.90
44695;DHT22;32845;59.422;17.930;2023-08-06T20:58:13;17.80;99.90
44695;DHT22;32845;59.422;17.930;2023-08-06T21:02:44;17.90;99.90
44695;DHT22;32845;59.422;17.930;2023-08-06T21:07:15;17.90;99.90
44695;DHT22;32845;59.422;17.930;2023-08-06T21:11:46;18.00;99.90
44695;DHT22;32845;59.422;17.930;2023-08-06T21:16:16;18.00;99.90
44695;DHT22;32845;59.422;17.930;2023-08-06T21:20:51;18.10;99.90
44695;DHT22;32845;59.422;17.930;2023-08-06T21:25:23;18.10;99.90
44695;DHT22;32845;59.422;17.930;2023-08-06T21:29:53;18.20;99.90
44695;DHT22;32845;59.422;17.930;2023-08-06T21:34:24;18.20;99.90
44695;DHT22;32845;59.422;17.930;2023-08-06T21:38:55;18.20;99.90
44695;DHT22;32845;59.422;17.930;2023-08-06T21:43:25;18.30;99.90
44695;DHT22;32845;59.422;17.930;2023-08-06T21:47:56;18.30;99.90
44695;DHT22;32845;59.422;17.930;2023-08-06T21:52:27;18.30;99.90
44695;DHT22;32845;59.422;17.930;2023-08-06T21:56:57;18.30;99.90
44695;DHT22;32845;59.422;17.930;2023-08-06T22:01:28;18.30;99.90
44695;DHT22;32845;59.422;17.930;2023-08-06T22:05:59;18.40;99.90
44695;DHT22;32845;59.422;17.930;2023-08-06T22:10:29;18.40;99.90
44695;DHT22;32845;59.422;17.930;2023-08-06T22:15:00;18.40;99.90
44695;DHT22;32845;59.422;17.930;2023-08-06T22:19:31;18.40;99.90
44695;DHT22;32845;59.422;17.930;2023-08-06T22:24:01;18.40;99.90
44695;DHT22;32845;59.422;17.930;2023-08-06T22:28:32;18.50;99.90
44695;DHT22;32845;59.422;17.930;2023-08-06T22:33:03;18.50;99.90
44695;DHT22;32845;59.422;17.930;2023-08-06T22:37:33;18.60;99.90
44695;DHT22;32845;59.422;17.930;2023-08-06T22:42:04;18.60;99.90
44695;DHT22;32845;59.422;17.930;2023-08-06T22:46:35;18.70;99.90
44695;DHT22;32845;59.422;17.930;2023-08-06T22:51:05;18.70;99.90
44695;DHT22;32845;59.422;17.930;2023-08-06T22:55:36;18.70;99.90
44695;DHT22;32845;59.422;17.930;2023-08-06T23:00:07;18.70;99.90
44695;DHT22;32845;59.422;17.930;2023-08-06T23:04:38;18.80;99.90
44695;DHT22;32845;59.422;17.930;2023-08-06T23:09:09;18.80;99.90
44695;DHT22;32845;59.422;17.930;2023-08-06T23:13:40;18.80;99.90
44695;DHT22;32845;59.422;17.930;2023-08-06T23:18:11;18.80;99.90
44695;DHT22;32845;59.422;17.930;2023-08-06T23:22:42;18.80;99.90
44695;DHT22;32845;59.422;17.930;2023-08-06T23:27:13;18.90;99.90
44695;DHT22;32845;59.422;17.930;2023-08-06T23:31:43;18.80;99.90
44695;DHT22;32845;59.422;17.930;2023-08-06T23:36:14;18.90;99.90
44695;DHT22;32845;59.422;17.930;2023-08-06T23:40:44;18.90;99.90
44695;DHT22;32845;59.422;17.930;2023-08-06T23:45:15;18.90;99.90
44695;DHT22;32845;59.422;17.930;2023-08-06T23:49:46;19.00;99.90
44695;DHT22;32845;59.422;17.930;2023-08-06T23:54:16;19.00;99.90
44695;DHT22;32845;59.422;17.930;2023-08-06T23:58:47;19.00;99.90
